Norwich, ND (58768)

2:22 PM CDT on August 23, 2014 (GMT -0500)
Deering Mobile Home Estates | Change Station
CLOSE
Current Station
Personal Weather Station
Location: Deering, ND
Elevation: 1549 ft
Nearby Weather Stations
Active Advisory: Areal Flood Watch

Elev 1549 ft 48.40 °N, 101.05 °W | Updated 14 minutes ago

Light Rain
Light Rain Mist
57.9 °F
Feels Like 57.9 °F
N
3.7
Wind Variable Wind from NNW

Today
High -- | Low -- °F
--% Chance of Precip.
Yesterday
High -- | Low -- °F
Precip. -- in
6:49 AM 8:42 PM
Waning Crescent, 3% visible
Pressure 30.02 in
Visibility 1.2 miles
Clouds Overcast 600 ft
Dew Point 55 °F
Humidity 90%
Rainfall 0.02 in
Snow Depth Not available.
UV 3 out of 12
Pollen 7.30 out of 12
Air Quality Not available.
Flu Activity Not available.
METAR KMOT 231854Z 02009KT 1 1/4SM -RA BR OVC006 14/13 A3002 RMK AO2 SLP166 P0003 T01390128

More Conditions Fewer Conditions

Pressure 30.02 in
Visibility 1.2 miles
Clouds Overcast 600 ft
Dew Point 55 °F
Humidity 90%
Rainfall 0.02 in
Snow Depth Not available.
UV 3 out of 12
Pollen 7.30 out of 12
Air Quality Not available.
Flu Activity Not available.
METAR KMOT 231854Z 02009KT 1 1/4SM -RA BR OVC006 14/13 A3002 RMK AO2 SLP166 P0003 T01390128

More Conditions Fewer Conditions

10-Day Weather Forecast

Almanac

Astronomy

Aug. 23, 2014 Rise Set
Actual Time 6:49 AM CDT 8:42 PM CDT
Civil Twilight 6:15 AM CDT 9:15 PM CDT
Nautical Twilight 5:34 AM CDT 9:56 PM CDT
Astronomical Twilight 4:49 AM CDT 10:41 PM CDT
Moon 5:04 AM CDT 7:29 PM CDT
Length of Visible Light 15h 00m
Length of Day
13h 53m
Tomorrow will be 3m 18s shorter.
Waning Crescent, 3% of the Moon is Illuminated
Today
Waning Crescent
Aug 25
New
Sep 2
First Quarter
Sep 8
Full
Sep 15
Last Quarter

Today's Extremes

State Highs State Lows

Community

WunderPhotos

Upload Photos

1,746,583 photos uploaded!

WunderBlogs® & News

Nearby

Snow Depth

Station Depth Elevation
No new snow has been reported.

Earthquake Activity

City Distance Mag. Time & Date
No recent earthquake activity has been reported nearby.
Minimum magnitude displayed is 2.5.

Coastal Water Temperatures

Place Temperature
No Stations Reporting

Nearby Weather Stations